| time (UTC) | temp F | wind direction | speed knots | gust knots | rain 1hr in | rain 24hr in | rain mn in | humidity % | barometer mb |
| 20260506222608 | 37 | 35 | 5.2 | 6.1 | 0.00 | 0.46 | 0.46 | 79 | 1013.5 |
| 20260506222104 | 37 | 39 | 3.5 | 5.2 | 0.00 | 0.46 | 0.46 | 79 | 1013.7 |
| 20260506221602 | 37 | 50 | 5.2 | 6.1 | 0.00 | 0.46 | 0.46 | 79 | 1013.7 |
| 20260506221100 | 37 | 359 | 0.0 | 4.3 | 0.07 | 0.46 | 0.46 | 83 | 1013.7 |
| 20260506220555 | 38 | 66 | 2.6 | 4.3 | 0.12 | 0.45 | 0.45 | 79 | 1013.8 |
| 20260506220051 | 37 | 46 | 0.9 | 2.6 | 0.19 | 0.44 | 0.44 | 82 | 1014.0 |
| 20260506215548 | 38 | 73 | 4.3 | 6.1 | 0.24 | 0.43 | 0.43 | 80 | 1014.0 |
| 20260506215044 | 39 | 129 | 1.7 | 1.7 | 0.24 | 0.41 | 0.41 | 80 | 1013.7 |
| 20260506214541 | 38 | 100 | 2.6 | 2.6 | 0.17 | 0.39 | 0.39 | 80 | 1014.1 |
| 20260506214038 | 36 | 80 | 2.6 | 4.3 | 0.19 | 0.37 | 0.37 | 83 | 1014.2 |
| 20260506213536 | 36 | 168 | 4.3 | 5.2 | 0.12 | 0.35 | 0.35 | 83 | 1014.2 |
| 20260506213033 | 37 | 152 | 1.7 | 2.6 | 0.17 | 0.34 | 0.34 | 83 | 1014.3 |
| 20260506212530 | 36 | 332 | 0.9 | 2.6 | 0.12 | 0.32 | 0.32 | 83 | 1014.4 |
| 20260506212025 | 37 | 115 | 2.6 | 2.6 | 0.12 | 0.31 | 0.31 | 83 | 1014.2 |
| 20260506211521 | 37 | 323 | 0.0 | 0.9 | 0.12 | 0.30 | 0.30 | 78 | 1014.5 |
| 20260506211018 | 36 | 323 | 0.9 | 0.9 | 0.12 | 0.29 | 0.29 | 79 | 1014.4 |
| 20260506210515 | 37 | 316 | 0.9 | 0.9 | 0.12 | 0.27 | 0.27 | 79 | 1014.5 |
| 20260506210011 | 37 | 326 | 0.0 | 0.0 | 0.12 | 0.26 | 0.26 | 78 | 1014.5 |
| 20260506205508 | 36 | 329 | 0.0 | 1.7 | 0.12 | 0.25 | 0.25 | 83 | 1014.5 |
| 20260506205003 | 36 | 312 | 1.7 | 1.7 | 0.12 | 0.24 | 0.24 | 80 | 1014.4 |
| 20260506204502 | 37 | 315 | 1.7 | 1.7 | 0.14 | 0.23 | 0.23 | 84 | 1014.7 |
| 20260506203958 | 35 | 344 | 0.9 | 2.6 | 0.12 | 0.22 | 0.22 | 87 | 1014.9 |
| 20260506203456 | 35 | 340 | 1.7 | 2.6 | 0.12 | 0.21 | 0.21 | 89 | 1015.1 |
| 20260506202953 | 35 | 22 | 1.7 | 1.7 | 0.12 | 0.20 | 0.20 | 89 | 1014.8 |
| 20260506202450 | 35 | 329 | 2.6 | 4.3 | 0.12 | 0.19 | 0.19 | 90 | 1014.9 |
| 20260506201946 | 35 | 336 | 0.9 | 2.6 | 0.12 | 0.18 | 0.18 | 90 | 1014.7 |
| 20260506201444 | 35 | 8 | 2.6 | 4.3 | 0.12 | 0.17 | 0.17 | 90 | 1014.9 |
| 20260506200940 | 34 | 331 | 2.6 | 2.6 | 0.07 | 0.16 | 0.16 | 91 | 1015.0 |
| 20260506200437 | 35 | 344 | 2.6 | 2.6 | 0.05 | 0.15 | 0.15 | 90 | 1015.0 |
| 20260506195933 | 35 | 353 | 3.5 | 4.3 | 0.07 | 0.14 | 0.14 | 90 | 1015.0 |
| 20260506195430 | 34 | 334 | 2.6 | 2.6 | 0.12 | 0.14 | 0.14 | 91 | 1015.0 |
| 20260506194927 | 34 | 335 | 3.5 | 4.3 | 0.12 | 0.13 | 0.13 | 91 | 1015.0 |
| 20260506194424 | 35 | 327 | 1.7 | 1.7 | 0.07 | 0.12 | 0.12 | 93 | 1014.8 |
| 20260506193921 | 34 | 10 | 1.7 | 4.3 | 0.05 | 0.11 | 0.11 | 93 | 1015.1 |
| 20260506193418 | 35 | 336 | 2.6 | 4.3 | 0.05 | 0.11 | 0.11 | 91 | 1015.0 |
| 20260506192915 | 33 | 338 | 4.3 | 6.1 | 0.07 | 0.10 | 0.10 | 91 | 1015.1 |
| 20260506192412 | 33 | 302 | 4.3 | 5.2 | 0.07 | 0.10 | 0.10 | 91 | 1015.1 |
| 20260506191908 | 33 | 327 | 5.2 | 6.1 | 0.07 | 0.09 | 0.09 | 92 | 1015.0 |
| 20260506191405 | 33 | 337 | 5.2 | 6.1 | 0.07 | 0.09 | 0.09 | 92 | 1014.9 |
| 20260506190902 | 33 | 325 | 2.6 | 5.2 | 0.00 | 0.08 | 0.08 | 92 | 1015.0 |
| 20260506190358 | 35 | 307 | 0.0 | 0.0 | 0.00 | 0.08 | 0.08 | 89 | 1015.1 |
| 20260506185855 | 37 | 348 | 0.0 | 0.0 | 0.05 | 0.08 | 0.08 | 89 | 1015.0 |
| 20260506185352 | 37 | 344 | 0.0 | 0.0 | 0.00 | 0.07 | 0.07 | 90 | 1015.3 |
| 20260506184849 | 37 | 356 | 0.0 | 0.0 | 0.07 | 0.07 | 0.07 | 91 | 1015.0 |
| 20260506184346 | 36 | 356 | 0.0 | 0.0 | 0.07 | 0.07 | 0.07 | 92 | 1015.4 |
| 20260506183844 | 36 | 39 | 0.0 | 0.0 | 0.00 | 0.06 | 0.06 | 93 | 1015.3 |
| 20260506183339 | 35 | 37 | 0.0 | 0.0 | 0.00 | 0.06 | 0.06 | 94 | 1015.4 |
| 20260506182836 | 35 | 33 | 0.0 | 0.0 | 0.05 | 0.06 | 0.06 | 96 | 1015.5 |
| 20260506182333 | 34 | 30 | 0.0 | 0.0 | 0.00 | 0.05 | 0.05 | 97 | 1015.3 |
| 20260506181831 | 33 | 28 | 0.0 | 0.0 | 0.00 | 0.05 | 0.05 | 98 | 1015.1 |
| 20260506181329 | 33 | 25 | 0.0 | 0.0 | 0.00 | 0.05 | 0.05 | 98 | 1015.4 |
| 20260506180825 | 33 | 24 | 0.0 | 0.0 | 0.00 | 0.05 | 0.05 | 98 | 1015.5 |
| 20260506180321 | 33 | 22 | 0.0 | 0.0 | 0.00 | 0.05 | 0.05 | 98 | 1015.4 |
| 20260506175817 | 33 | 20 | 0.0 | 0.0 | 0.07 | 0.05 | 0.05 | 98 | 1015.1 |
| 20260506175315 | 34 | 18 | 0.0 | 0.0 | 0.07 | 0.05 | 0.05 | 98 | 1015.0 |
| 20260506174812 | 34 | 15 | 0.0 | 0.0 | 0.00 | 0.04 | 0.04 | 98 | 1015.0 |
| 20260506174309 | 33 | 344 | 0.0 | 0.0 | 0.00 | 0.04 | 0.04 | 98 | 1014.8 |
| 20260506173807 | 33 | 12 | 0.0 | 0.0 | 0.00 | 0.04 | 0.04 | 98 | 1014.9 |
| 20260506173303 | 33 | 10 | 0.0 | 0.0 | 0.05 | 0.04 | 0.04 | 98 | 1014.9 |
| 20260506172801 | 33 | 7 | 0.0 | 0.0 | 0.05 | 0.04 | 0.04 | 99 | 1015.1 |
| 20260506172257 | 33 | 4 | 0.0 | 0.0 | 0.00 | 0.03 | 0.03 | 99 | 1014.9 |
| 20260506171755 | 33 | 1 | 0.0 | 0.0 | 0.00 | 0.03 | 0.03 | 99 | 1014.9 |
| 20260506171252 | 33 | 358 | 0.0 | 0.0 | 0.07 | 0.03 | 0.03 | 99 | 1014.8 |
| 20260506170749 | 33 | 355 | 0.0 | 0.0 | 0.07 | 0.03 | 0.03 | 99 | 1014.9 |
| 20260506170245 | 33 | 352 | 0.0 | 0.0 | 0.00 | 0.02 | 0.02 | 99 | 1014.7 |
| 20260506165744 | 33 | 350 | 0.0 | 0.0 | 0.00 | 0.02 | 0.02 | 99 | 1014.7 |
| 20260506165241 | 33 | 349 | 0.0 | 0.0 | 0.00 | 0.02 | 0.02 | 99 | 1014.5 |
| 20260506164738 | 32 | 349 | 0.0 | 0.0 | 0.00 | 0.02 | 0.02 | 99 | 1014.3 |
| 20260506164235 | 32 | 339 | 0.0 | 0.0 | 0.05 | 0.02 | 0.02 | 99 | 1014.1 |
| 20260506163732 | 33 | 346 | 0.0 | 0.0 | 0.05 | 0.02 | 0.02 | 99 | 1014.0 |
| 20260506163226 | 33 | 345 | 0.0 | 0.0 | 0.00 | 0.01 | 0.01 | 99 | 1014.1 |
| 20260506162722 | 32 | 344 | 0.0 | 0.0 | 0.00 | 0.01 | 0.01 | 99 | 1014.1 |
| 20260506162221 | 32 | 343 | 0.0 | 0.0 | 0.00 | 0.01 | 0.01 | 99 | 1014.1 |
| 20260506161718 | 33 | 342 | 0.0 | 0.0 | 0.00 | 0.01 | 0.01 | 99 | 1014.1 |
| 20260506161215 | 33 | 342 | 0.0 | 0.0 | 0.00 | 0.01 | 0.01 | 99 | 1014.1 |
| 20260506160712 | 32 | 341 | 0.0 | 0.0 | 0.00 | 0.01 | 0.01 | 99 | 1014.1 |
| 20260506160209 | 32 | 340 | 0.0 | 0.0 | 0.00 | 0.01 | 0.01 | 99 | 1014.1 |
| 20260506155707 | 32 | 340 | 0.0 | 0.0 | 0.00 | 0.01 | 0.01 | 99 | 1013.8 |
| 20260506155204 | 32 | 339 | 0.0 | 0.0 | 0.00 | 0.01 | 0.01 | 99 | 1014.1 |
| 20260506153311 | 33 | 338 | 0.0 | 0.0 | 0.00 | 0.01 | 0.01 | 99 | 1013.8 |
| 20260506152808 | 33 | 338 | 0.0 | 0.0 | 0.00 | 0.01 | 0.01 | 99 | 1013.8 |
| 20260506152306 | 33 | 337 | 0.0 | 0.0 | 0.00 | 0.01 | 0.01 | 99 | 1013.8 |
| 20260506151804 | 33 | 337 | 0.0 | 0.0 | 0.00 | 0.01 | 0.01 | 99 | 1013.6 |
| 20260506151301 | 33 | 337 | 0.0 | 0.0 | 0.00 | 0.01 | 0.01 | 99 | 1013.8 |
| 20260506150757 | 33 | 337 | 0.0 | 0.0 | 0.00 | 0.01 | 0.01 | 99 | 1013.5 |
| 20260506150303 | 33 | 337 | 0.0 | 0.0 | 0.00 | 0.01 | 0.01 | 99 | 1013.5 |
| 20260506145751 | 33 | 336 | 0.0 | 0.0 | 0.00 | 0.01 | 0.01 | 99 | 1013.6 |
| 20260506145247 | 32 | 336 | 0.0 | 0.0 | 0.00 | 0.01 | 0.01 | 99 | 1013.3 |
| 20260506144745 | 32 | 335 | 0.0 | 0.0 | 0.00 | 0.01 | 0.01 | 99 | 1013.3 |
| 20260506144242 | 33 | 336 | 0.0 | 0.0 | 0.00 | 0.01 | 0.01 | 99 | 1013.1 |
| 20260506143740 | 33 | 336 | 0.0 | 0.0 | 0.00 | 0.01 | 0.01 | 99 | 1013.3 |
| 20260506143237 | 33 | 337 | 0.0 | 0.0 | 0.00 | 0.01 | 0.01 | 99 | 1013.5 |
| 20260506142735 | 32 | 337 | 0.0 | 0.0 | 0.00 | 0.01 | 0.01 | 99 | 1013.3 |
| 20260506142233 | 32 | 337 | 0.0 | 0.0 | 0.00 | 0.01 | 0.01 | 99 | 1013.1 |
| 20260506141731 | 32 | 337 | 0.0 | 0.0 | 0.00 | 0.01 | 0.01 | 99 | 1013.1 |
| 20260506141229 | 32 | 338 | 0.0 | 0.0 | 0.00 | 0.01 | 0.01 | 99 | 1013.0 |
| 20260506140726 | 32 | 338 | 0.0 | 0.0 | 0.00 | 0.01 | 0.01 | 99 | 1013.1 |
| 20260506140223 | 32 | 338 | 0.0 | 0.0 | 0.00 | 0.01 | 0.01 | 99 | 1012.9 |
| 20260506135720 | 32 | 338 | 0.0 | 0.0 | 0.00 | 0.01 | 0.01 | 99 | 1012.8 |
| 20260506135216 | 32 | 339 | 0.0 | 0.0 | 0.00 | 0.01 | 0.01 | 99 | 1012.8 |
| 20260506134713 | 32 | 339 | 0.0 | 0.0 | 0.00 | 0.01 | 0.01 | 99 | 1012.9 |
| 20260506134209 | 32 | 339 | 0.0 | 0.0 | 0.00 | 0.01 | 0.01 | 99 | 1012.9 |
| 20260506133707 | 33 | 339 | 0.0 | 0.0 | 0.00 | 0.01 | 0.01 | 99 | 1013.0 |
| 20260506133203 | 33 | 339 | 0.0 | 0.0 | 0.00 | 0.01 | 0.01 | 99 | 1013.0 |
| 20260506132700 | 33 | 339 | 0.0 | 0.0 | 0.00 | 0.01 | 0.01 | 99 | 1012.9 |
| 20260506132157 | 32 | 339 | 0.0 | 0.0 | 0.00 | 0.01 | 0.01 | 99 | 1012.8 |
| 20260506131655 | 32 | 339 | 0.0 | 0.0 | 0.00 | 0.01 | 0.01 | 99 | 1012.5 |
| 20260506131150 | 31 | 339 | 0.0 | 0.0 | 0.00 | 0.01 | 0.01 | 99 | 1012.7 |
| 20260506130647 | 31 | 339 | 0.0 | 0.0 | 0.00 | 0.01 | 0.01 | 99 | 1012.5 |
| 20260506130145 | 31 | 339 | 0.0 | 0.0 | 0.00 | 0.01 | 0.01 | 99 | 1012.3 |
| 20260506125643 | 31 | 339 | 0.0 | 0.0 | 0.00 | 0.01 | 0.01 | 99 | 1012.2 |
| 20260506125140 | 31 | 339 | 0.0 | 0.0 | 0.00 | 0.01 | 0.01 | 99 | 1012.3 |
| 20260506124638 | 30 | 339 | 0.0 | 0.0 | 0.00 | 0.01 | 0.01 | 99 | 1012.0 |
| 20260506124136 | 30 | 339 | 0.0 | 0.0 | 0.00 | 0.01 | 0.01 | 99 | 1012.0 |
| 20260506123633 | 30 | 339 | 0.0 | 0.0 | 0.00 | 0.01 | 0.01 | 99 | 1012.2 |
| 20260506123132 | 30 | 339 | 0.0 | 0.0 | 0.00 | 0.01 | 0.01 | 99 | 1011.8 |
| 20260506122628 | 30 | 339 | 0.0 | 0.0 | 0.00 | 0.01 | 0.01 | 99 | 1012.2 |
| 20260506122126 | 30 | 339 | 0.0 | 0.0 | 0.00 | 0.01 | 0.01 | 99 | 1012.0 |
| 20260506121624 | 30 | 339 | 0.0 | 0.0 | 0.00 | 0.01 | 0.01 | 99 | 1011.8 |
| 20260506121120 | 30 | 339 | 0.0 | 0.0 | 0.00 | 0.01 | 0.01 | 99 | 1011.7 |
| 20260506120618 | 30 | 339 | 0.0 | 0.0 | 0.00 | 0.01 | 0.01 | 99 | 1011.7 |
| 20260506120115 | 30 | 339 | 0.0 | 0.0 | 0.00 | 0.01 | 0.01 | 99 | 1012.0 |
| 20260506115614 | 30 | 339 | 0.0 | 0.0 | 0.00 | 0.01 | 0.01 | 99 | 1011.8 |
| 20260506115111 | 30 | 339 | 0.0 | 0.0 | 0.00 | 0.01 | 0.01 | 99 | 1011.7 |
| 20260506114608 | 31 | 339 | 0.0 | 0.0 | 0.00 | 0.01 | 0.01 | 99 | 1011.4 |
| 20260506114106 | 30 | 339 | 0.0 | 0.0 | 0.00 | 0.01 | 0.01 | 99 | 1011.6 |
| 20260506113604 | 30 | 339 | 0.0 | 0.0 | 0.00 | 0.01 | 0.01 | 99 | 1011.6 |
| 20260506113101 | 31 | 339 | 0.0 | 0.0 | 0.00 | 0.01 | 0.01 | 99 | 1011.5 |
| 20260506112557 | 31 | 339 | 0.0 | 0.0 | 0.00 | 0.01 | 0.01 | 99 | 1011.7 |
| 20260506112055 | 31 | 339 | 0.0 | 0.0 | 0.00 | 0.01 | 0.01 | 99 | 1011.3 |
| 20260506111553 | 31 | 339 | 0.0 | 0.0 | 0.00 | 0.01 | 0.01 | 99 | 1011.0 |
| 20260506111050 | 31 | 339 | 0.0 | 0.0 | 0.00 | 0.01 | 0.01 | 99 | 1011.3 |
| 20260506110547 | 31 | 339 | 0.0 | 0.0 | 0.00 | 0.01 | 0.01 | 99 | 1011.5 |
| 20260506110044 | 31 | 339 | 0.0 | 0.0 | 0.00 | 0.01 | 0.01 | 99 | 1011.4 |
| 20260506105540 | 31 | 339 | 0.0 | 0.0 | 0.00 | 0.01 | 0.01 | 99 | 1011.3 |
| 20260506105038 | 31 | 339 | 0.0 | 0.0 | 0.00 | 0.01 | 0.01 | 99 | 1011.5 |
| 20260506104536 | 31 | 339 | 0.0 | 0.0 | 0.00 | 0.01 | 0.01 | 99 | 1011.4 |
| 20260506104034 | 31 | 339 | 0.0 | 0.0 | 0.00 | 0.01 | 0.01 | 99 | 1011.3 |
| 20260506103531 | 31 | 339 | 0.0 | 0.0 | 0.00 | 0.01 | 0.01 | 99 | 1011.4 |
| 20260506103027 | 31 | 339 | 0.0 | 0.0 | 0.00 | 0.01 | 0.01 | 99 | 1011.6 |
| 20260506102526 | 31 | 339 | 0.0 | 0.0 | 0.00 | 0.01 | 0.01 | 99 | 1011.1 |
| 20260506102023 | 31 | 339 | 0.0 | 0.0 | 0.00 | 0.01 | 0.01 | 99 | 1011.0 |
| 20260506101519 | 31 | 339 | 0.0 | 0.0 | 0.00 | 0.01 | 0.01 | 99 | 1011.4 |
| 20260506101016 | 31 | 339 | 0.0 | 0.0 | 0.00 | 0.01 | 0.01 | 99 | 1011.5 |
| 20260506100514 | 31 | 339 | 0.0 | 0.0 | 0.00 | 0.01 | 0.01 | 99 | 1011.4 |
| 20260506100012 | 31 | 339 | 0.0 | 0.0 | 0.00 | 0.01 | 0.01 | 99 | 1011.4 |
| 20260506095511 | 31 | 339 | 0.0 | 0.0 | 0.00 | 0.01 | 0.01 | 99 | 1011.3 |
| 20260506095001 | 31 | 339 | 0.0 | 0.0 | 0.00 | 0.01 | 0.01 | 99 | 1011.1 |
| 20260506094459 | 31 | 339 | 0.0 | 0.0 | 0.00 | 0.01 | 0.01 | 99 | 1011.0 |
| 20260506093956 | 32 | 339 | 0.0 | 0.0 | 0.00 | 0.01 | 0.01 | 99 | 1011.3 |
| 20260506093454 | 32 | 339 | 0.0 | 0.0 | 0.00 | 0.01 | 0.01 | 99 | 1011.0 |
| 20260506092952 | 32 | 339 | 0.0 | 0.0 | 0.00 | 0.01 | 0.01 | 99 | 1010.9 |
| 20260506092449 | 32 | 339 | 0.0 | 0.0 | 0.00 | 0.01 | 0.01 | 99 | 1011.0 |
| 20260506091946 | 32 | 339 | 0.0 | 0.0 | 0.00 | 0.01 | 0.01 | 99 | 1010.9 |
| 20260506091444 | 32 | 339 | 0.0 | 0.0 | 0.00 | 0.01 | 0.01 | 99 | 1011.0 |
| 20260506090941 | 32 | 339 | 0.0 | 0.0 | 0.00 | 0.01 | 0.01 | 99 | 1010.8 |
| 20260506090440 | 32 | 339 | 0.0 | 0.0 | 0.00 | 0.01 | 0.01 | 99 | 1010.9 |
| 20260506085935 | 32 | 339 | 0.0 | 0.0 | 0.00 | 0.01 | 0.01 | 99 | 1010.9 |
| 20260506085432 | 32 | 339 | 0.0 | 0.0 | 0.00 | 0.01 | 0.01 | 99 | 1010.8 |
| 20260506084928 | 32 | 339 | 0.0 | 0.0 | 0.00 | 0.01 | 0.01 | 99 | 1011.0 |
| 20260506084426 | 32 | 339 | 0.0 | 0.0 | 0.00 | 0.01 | 0.01 | 99 | 1011.0 |
| 20260506083921 | 32 | 339 | 0.0 | 0.0 | 0.00 | 0.01 | 0.01 | 99 | 1011.1 |
| 20260506083419 | 32 | 339 | 0.0 | 0.0 | 0.00 | 0.01 | 0.01 | 99 | 1011.1 |
| 20260506082916 | 32 | 339 | 0.0 | 0.0 | 0.00 | 0.01 | 0.01 | 99 | 1011.0 |
| 20260506082413 | 32 | 339 | 0.0 | 0.0 | 0.00 | 0.01 | 0.01 | 99 | 1011.3 |
| 20260506081908 | 32 | 339 | 0.0 | 0.0 | 0.00 | 0.01 | 0.01 | 99 | 1011.3 |
| 20260506081408 | 32 | 339 | 0.0 | 0.0 | 0.00 | 0.01 | 0.01 | 99 | 1011.3 |
| 20260506080904 | 32 | 339 | 0.0 | 0.0 | 0.00 | 0.01 | 0.01 | 99 | 1011.3 |
| 20260506080401 | 32 | 339 | 0.0 | 0.0 | 0.00 | 0.01 | 0.01 | 99 | 1011.1 |
| 20260506073345 | 32 | 339 | 0.0 | 0.0 | 0.00 | 0.01 | 0.01 | 99 | 1011.1 |
| 20260506072842 | 32 | 339 | 0.0 | 0.0 | 0.00 | 0.01 | 0.01 | 99 | 1011.1 |
| 20260506072340 | 32 | 339 | 0.0 | 0.0 | 0.00 | 0.01 | 0.01 | 99 | 1011.3 |
| 20260506071837 | 32 | 339 | 0.0 | 0.0 | 0.07 | 0.01 | 0.01 | 99 | 1011.1 |
| 20260506071335 | 32 | 339 | 0.0 | 0.0 | 0.07 | 0.01 | 0.01 | 99 | 1011.0 |
| 20260506070832 | 32 | 339 | 0.0 | 0.0 | 0.00 | 0.00 | 0.00 | 99 | 1011.0 |
| 20260506070328 | 32 | 339 | 0.0 | 0.0 | 0.00 | 0.00 | 0.00 | 99 | 1011.1 |
| 20260506062306 | 32 | 339 | 0.0 | 0.0 | 0.00 | 0.00 | 0.00 | 98 | 1010.7 |
| 20260506061801 | 32 | 339 | 0.0 | 0.0 | 0.00 | 0.00 | 0.00 | 98 | 1010.9 |
| 20260506061259 | 32 | 339 | 0.0 | 0.0 | 0.00 | 0.00 | 0.00 | 97 | 1010.6 |
| 20260506060757 | 32 | 339 | 0.0 | 0.0 | 0.00 | 0.00 | 0.00 | 97 | 1010.7 |
| 20260506060254 | 32 | 339 | 0.0 | 0.0 | 0.00 | 0.00 | 0.00 | 97 | 1010.4 |
| 20260506051226 | 32 | 339 | 0.0 | 0.0 | 0.00 | 1.16 | 1.16 | 96 | 1010.4 |
| 20260506050724 | 32 | 340 | 0.0 | 0.0 | 0.00 | 1.16 | 1.16 | 96 | 1010.4 |
| 20260506050221 | 32 | 340 | 0.0 | 0.0 | 0.00 | 1.16 | 1.16 | 96 | 1010.6 |
| 20260506044712 | 32 | 340 | 0.0 | 0.0 | 0.00 | 1.16 | 1.16 | 96 | 1010.4 |
| 20260506044209 | 32 | 340 | 0.0 | 0.0 | 0.05 | 1.16 | 1.16 | 96 | 1010.2 |
| 20260506043707 | 32 | 340 | 0.0 | 0.0 | 0.05 | 1.16 | 1.16 | 95 | 1010.2 |
| 20260506043204 | 32 | 340 | 0.0 | 0.0 | 0.00 | 1.15 | 1.15 | 95 | 1010.6 |
| 20260506042703 | 32 | 340 | 0.0 | 0.0 | 0.00 | 1.15 | 1.15 | 95 | 1010.7 |
| 20260506042201 | 32 | 340 | 0.0 | 0.0 | 0.00 | 1.15 | 1.15 | 95 | 1010.4 |
| 20260506041659 | 32 | 340 | 0.0 | 0.0 | 0.00 | 1.15 | 1.15 | 95 | 1010.8 |
| 20260506041155 | 32 | 340 | 0.0 | 0.0 | 0.00 | 1.15 | 1.15 | 95 | 1010.6 |
| 20260506040653 | 32 | 340 | 0.0 | 0.0 | 0.00 | 1.15 | 1.15 | 95 | 1010.2 |
| 20260506040144 | 32 | 340 | 0.0 | 0.0 | 0.00 | 1.15 | 1.15 | 95 | 1010.4 |
| 20260506035641 | 32 | 340 | 0.0 | 0.0 | 0.00 | 1.15 | 1.15 | 95 | 1010.2 |
| 20260506035137 | 32 | 340 | 0.0 | 0.0 | 0.00 | 1.15 | 1.15 | 95 | 1010.3 |
| 20260506034635 | 32 | 340 | 0.0 | 0.0 | 0.00 | 1.15 | 1.15 | 95 | 1010.6 |
| 20260506034131 | 32 | 340 | 0.0 | 0.0 | 0.00 | 1.15 | 1.15 | 95 | 1010.3 |
| 20260506033629 | 32 | 340 | 0.0 | 0.0 | 0.00 | 1.15 | 1.15 | 95 | 1010.1 |
| 20260506033126 | 32 | 340 | 0.0 | 0.0 | 0.00 | 1.15 | 1.15 | 95 | 1010.2 |
| 20260506032623 | 32 | 340 | 0.0 | 0.0 | 0.00 | 1.15 | 1.15 | 95 | 1010.0 |
| 20260506032120 | 32 | 340 | 0.0 | 0.0 | 0.00 | 1.15 | 1.15 | 95 | 1009.7 |
| 20260506031617 | 32 | 340 | 2.6 | 2.6 | 0.00 | 1.15 | 1.15 | 95 | 1010.0 |
| 20260506031114 | 32 | 340 | 2.6 | 2.6 | 0.00 | 1.15 | 1.15 | 95 | 1009.6 |
| 20260506030612 | 32 | 340 | 4.3 | 6.1 | 0.07 | 1.15 | 1.15 | 95 | 1009.8 |
| 20260506030109 | 32 | 340 | 3.5 | 6.1 | 0.07 | 1.15 | 1.15 | 95 | 1009.7 |
| 20260506025606 | 32 | 340 | 4.3 | 6.1 | 0.00 | 1.14 | 1.14 | 95 | 1009.7 |
| 20260506025102 | 32 | 340 | 4.3 | 4.3 | 0.00 | 1.14 | 1.14 | 95 | 1009.4 |
| 20260506024559 | 32 | 340 | 4.3 | 5.2 | 0.00 | 1.14 | 1.14 | 95 | 1009.3 |
| 20260506024055 | 32 | 340 | 4.3 | 5.2 | 0.00 | 1.14 | 1.14 | 95 | 1009.1 |
| 20260506023551 | 32 | 340 | 1.7 | 5.2 | 0.00 | 1.14 | 1.14 | 95 | 1009.3 |
| 20260506023049 | 32 | 341 | 3.5 | 6.1 | 0.00 | 1.14 | 1.14 | 95 | 1008.8 |
| 20260506022547 | 32 | 341 | 3.5 | 6.1 | 0.00 | 1.14 | 1.14 | 95 | 1008.9 |
| 20260506022044 | 32 | 341 | 3.5 | 5.2 | 0.00 | 1.14 | 1.14 | 94 | 1009.0 |
| 20260506021541 | 32 | 341 | 4.3 | 5.2 | 0.00 | 1.14 | 1.14 | 94 | 1008.7 |
| 20260506021039 | 32 | 341 | 3.5 | 6.1 | 0.00 | 1.14 | 1.14 | 94 | 1008.7 |
| 20260506020536 | 32 | 341 | 3.5 | 7.0 | 0.00 | 1.14 | 1.14 | 94 | 1008.7 |
| 20260506020033 | 32 | 342 | 2.6 | 5.2 | 0.00 | 1.14 | 1.14 | 94 | 1008.6 |
| 20260506015531 | 32 | 342 | 5.2 | 6.1 | 0.00 | 1.14 | 1.14 | 94 | 1008.4 |
| 20260506015027 | 32 | 343 | 4.3 | 5.2 | 0.00 | 1.14 | 1.14 | 94 | 1008.6 |
| 20260506014525 | 32 | 331 | 5.2 | 6.1 | 0.00 | 1.14 | 1.14 | 94 | 1008.8 |
| 20260506014021 | 32 | 340 | 4.3 | 5.2 | 0.00 | 1.14 | 1.14 | 94 | 1008.3 |
| 20260506013519 | 32 | 307 | 2.6 | 4.3 | 0.00 | 1.14 | 1.14 | 94 | 1008.6 |
| 20260506013015 | 32 | 320 | 5.2 | 7.8 | 0.00 | 1.14 | 1.14 | 94 | 1008.4 |
| 20260506012511 | 32 | 319 | 5.2 | 7.8 | 0.05 | 1.14 | 1.14 | 94 | 1008.3 |
| 20260506012009 | 32 | 331 | 6.1 | 7.8 | 0.00 | 1.13 | 1.13 | 94 | 1008.3 |
| 20260506011506 | 32 | 321 | 3.5 | 5.2 | 0.00 | 1.13 | 1.13 | 94 | 1008.3 |
| 20260506011002 | 32 | 336 | 2.6 | 7.0 | 0.00 | 1.13 | 1.13 | 94 | 1008.2 |
| 20260506010502 | 32 | 333 | 2.6 | 7.0 | 0.07 | 1.13 | 1.13 | 94 | 1008.3 |
| 20260506005957 | 32 | 313 | 5.2 | 5.2 | 0.07 | 1.13 | 1.13 | 94 | 1008.4 |
| 20260506005455 | 32 | 324 | 7.0 | 7.8 | 0.00 | 1.12 | 1.12 | 94 | 1008.3 |
| 20260506004950 | 32 | 304 | 6.1 | 7.8 | 0.00 | 1.12 | 1.12 | 94 | 1008.1 |
| 20260506004448 | 33 | 334 | 5.2 | 7.0 | 0.00 | 1.12 | 1.12 | 93 | 1008.2 |
| 20260506003944 | 33 | 338 | 3.5 | 4.3 | 0.00 | 1.12 | 1.12 | 93 | 1008.0 |
| 20260506003441 | 33 | 334 | 0.9 | 1.7 | 0.00 | 1.12 | 1.12 | 93 | 1008.1 |
| 20260506002937 | 33 | 333 | 0.9 | 5.2 | 0.00 | 1.12 | 1.12 | 93 | 1008.2 |
| 20260506002433 | 33 | 331 | 2.6 | 4.3 | 0.00 | 1.12 | 1.12 | 93 | 1008.2 |
| 20260506001928 | 33 | 332 | 3.5 | 4.3 | 0.00 | 1.12 | 1.12 | 93 | 1007.8 |
| 20260506001426 | 33 | 333 | 1.7 | 1.7 | 0.00 | 1.12 | 1.12 | 93 | 1008.0 |
| 20260506000923 | 33 | 333 | 2.6 | 4.3 | 0.00 | 1.12 | 1.12 | 93 | 1008.1 |
| 20260506000423 | 33 | 332 | 2.6 | 4.3 | 0.00 | 1.12 | 1.12 | 93 | 1007.8 |
| 20260505235917 | 33 | 330 | 0.9 | 0.9 | 0.00 | 1.12 | 1.12 | 94 | 1007.7 |
| 20260505235415 | 33 | 330 | 3.5 | 4.3 | 0.00 | 1.12 | 1.12 | 94 | 1007.5 |
| 20260505234912 | 33 | 329 | 4.3 | 4.3 | 0.00 | 1.12 | 1.12 | 94 | 1007.6 |
| 20260505234410 | 32 | 330 | 3.5 | 4.3 | 0.00 | 1.12 | 1.12 | 94 | 1007.8 |
| 20260505233906 | 32 | 332 | 3.5 | 4.3 | 0.00 | 1.12 | 1.12 | 94 | 1007.4 |
| 20260505233404 | 32 | 319 | 2.6 | 6.1 | 0.00 | 1.12 | 1.12 | 93 | 1007.5 |
| 20260505232901 | 32 | 329 | 2.6 | 6.1 | 0.00 | 1.12 | 1.12 | 88 | 1007.8 |
| 20260505232359 | 32 | 326 | 3.5 | 7.8 | 0.00 | 1.12 | 1.12 | 90 | 1007.7 |
| 20260505231855 | 32 | 301 | 4.3 | 5.2 | 0.00 | 1.12 | 1.12 | 94 | 1007.7 |
| 20260505231353 | 33 | 324 | 3.5 | 7.0 | 0.00 | 1.12 | 1.12 | 98 | 1007.4 |
| 20260505230851 | 33 | 315 | 3.5 | 5.2 | 0.00 | 1.12 | 1.12 | 98 | 1007.0 |
| 20260505230348 | 32 | 317 | 2.6 | 4.3 | 0.00 | 1.12 | 1.12 | 98 | 1007.1 |
| 20260505225845 | 33 | 330 | 2.6 | 2.6 | 0.00 | 1.12 | 1.12 | 98 | 1007.5 |
| 20260505225342 | 33 | 330 | 2.6 | 2.6 | 0.00 | 1.12 | 1.12 | 98 | 1007.1 |
| 20260505224837 | 33 | 322 | 2.6 | 2.6 | 0.00 | 1.12 | 1.12 | 97 | 1006.9 |
| 20260505224335 | 33 | 316 | 1.7 | 1.7 | 0.00 | 1.12 | 1.12 | 97 | 1006.8 |
| 20260505223832 | 33 | 319 | 0.9 | 0.9 | 0.00 | 1.12 | 1.12 | 97 | 1006.6 |
| 20260505223329 | 33 | 326 | 0.0 | 0.0 | 0.00 | 1.12 | 1.12 | 97 | 1006.6 |